Time;durP1;ratioP1;P1;durP2;ratioP2;P2;SDS_P1;SDS_P2;PMS_P1;PMS_P2;Temp;Humidity;BMP_temperature;BMP_pressure;BME280_temperature;BME280_humidity;BME280_pressure;Samples;Min_cycle;Max_cycle;Signal;HPM_P1;HPM_P2
2021/04/27 04:51:56;;;;;;;8.40;3.80;;;2.40;99.90;;;;;;5265343;23;20063;-70
2021/04/27 04:54:52;;;;;;;7.07;3.58;;;3.30;99.90;;;;;;4902002;28;20471;-70
2021/04/27 04:57:36;;;;;;;8.32;3.50;;;3.90;99.90;;;;;;4951223;28;20134;-69
2021/04/27 05:00:04;;;;;;;4.72;2.92;;;4.40;99.90;;;;;;4954818;28;20141;-71
2021/04/27 05:02:43;;;;;;;6.53;3.33;;;4.60;99.90;;;;;;4934718;29;20073;-70
2021/04/27 05:05:28;;;;;;;9.50;3.53;;;5.00;99.90;;;;;;5209503;23;20057;-63
2021/04/27 05:08:21;;;;;;;9.45;4.20;;;5.40;99.90;;;;;;4970709;28;20089;-62
2021/04/27 05:11:23;;;;;;;5.18;3.75;;;5.00;99.90;;;;;;4967906;28;20054;-66
2021/04/27 05:13:54;;;;;;;7.70;3.63;;;4.90;99.90;;;;;;4963036;28;20122;-64
2021/04/27 05:16:21;;;;;;;9.73;3.80;;;5.30;99.90;;;;;;4951371;28;20058;-65
2021/04/27 05:18:47;;;;;;;5.95;4.00;;;5.00;99.90;;;;;;4969979;28;20118;-63
2021/04/27 05:21:14;;;;;;;5.90;3.15;;;5.90;99.90;;;;;;4970334;28;20043;-64
2021/04/27 05:23:41;;;;;;;;;;;6.40;99.90;;;;;;4971089;28;20050;-63
2021/04/27 05:26:08;;;;;;;10.65;3.28;;;6.30;99.90;;;;;;4970128;28;19926;-64
2021/04/27 05:28:35;;;;;;;12.27;3.53;;;6.70;99.90;;;;;;4968964;28;20043;-64
2021/04/27 05:31:01;;;;;;;12.27;3.63;;;6.90;99.90;;;;;;4969440;28;20078;-64
2021/04/27 05:33:28;;;;;;;13.88;4.15;;;7.00;99.90;;;;;;4965529;28;20043;-64
2021/04/27 05:35:55;;;;;;;8.50;3.95;;;7.40;99.90;;;;;;4954863;28;20478;-64
2021/04/27 05:38:21;;;;;;;;;;;7.50;99.90;;;;;;4950619;29;20503;-63
2021/04/27 05:40:48;;;;;;;8.90;3.33;;;6.90;99.90;;;;;;4951301;29;20408;-63
2021/04/27 05:43:15;;;;;;;7.07;3.80;;;7.20;99.90;;;;;;4951506;28;20597;-63
2021/04/27 05:45:42;;;;;;;11.35;3.55;;;7.50;99.90;;;;;;4954996;29;20075;-64
2021/04/27 05:48:09;;;;;;;8.52;3.30;;;8.30;99.90;;;;;;4955193;29;20051;-63
2021/04/27 05:50:35;;;;;;;;;;;8.60;99.90;;;;;;4955174;29;20090;-63
2021/04/27 05:53:02;;;;;;;6.80;3.38;;;9.10;99.90;;;;;;4955045;29;20371;-63
2021/04/27 05:55:28;;;;;;;8.35;3.65;;;9.00;99.90;;;;;;4954926;29;20047;-64
2021/04/27 05:57:56;;;;;;;;;;;9.30;99.90;;;;;;4955862;29;20055;-64
2021/04/27 06:00:23;;;;;;;12.33;3.80;;;9.90;98.90;;;;;;4954791;29;20358;-64
2021/04/27 06:02:50;;;;;;;8.93;2.97;;;9.60;99.00;;;;;;4954478;29;20043;-66
2021/04/27 06:05:17;;;;;;;3.53;2.85;;;10.40;96.20;;;;;;4954623;29;20418;-64
2021/04/27 06:07:44;;;;;;;10.77;3.15;;;10.30;96.60;;;;;;4954388;29;20047;-65
2021/04/27 06:10:11;;;;;;;3.92;3.03;;;10.30;96.10;;;;;;4954269;29;20078;-65
2021/04/27 06:12:38;;;;;;;7.20;3.03;;;9.80;95.90;;;;;;4954817;29;20117;-65
2021/04/27 06:15:06;;;;;;;;;;;10.60;94.30;;;;;;4972979;28;20074;-64
2021/04/27 06:17:35;;;;;;;;;;;11.10;92.60;;;;;;4974195;28;19922;-64
2021/04/27 06:20:01;;;;;;;4.38;2.50;;;11.40;91.30;;;;;;4973677;28;20402;-64
2021/04/27 06:22:28;;;;;;;6.05;2.63;;;11.80;90.80;;;;;;4974098;28;20057;-64
2021/04/27 06:24:54;;;;;;;5.40;2.05;;;12.20;89.80;;;;;;4956245;28;20328;-65
2021/04/27 06:27:23;;;;;;;5.53;2.28;;;12.50;86.10;;;;;;4973874;28;20105;-64
2021/04/27 06:29:50;;;;;;;5.53;2.50;;;12.10;88.90;;;;;;4973511;28;20044;-64
2021/04/27 06:32:18;;;;;;;6.05;2.40;;;12.30;86.40;;;;;;4973247;28;20053;-65
2021/04/27 06:34:44;;;;;;;7.70;2.40;;;12.40;85.20;;;;;;4955985;28;20474;-64
2021/04/27 06:37:11;;;;;;;6.18;2.80;;;13.10;82.60;;;;;;4973166;28;20051;-65
2021/04/27 06:39:38;;;;;;;6.43;3.13;;;13.40;81.80;;;;;;4972939;28;20053;-64
2021/04/27 06:42:05;;;;;;;5.97;3.13;;;13.00;82.20;;;;;;4973445;28;20197;-64
2021/04/27 06:44:32;;;;;;;4.82;2.60;;;12.20;84.00;;;;;;4973056;28;20050;-65
2021/04/27 06:46:59;;;;;;;4.65;2.60;;;13.20;80.80;;;;;;4973063;28;20133;-64
2021/04/27 06:49:26;;;;;;;3.72;2.40;;;13.60;79.00;;;;;;4972993;28;20174;-65
2021/04/27 06:51:53;;;;;;;5.75;2.42;;;13.90;77.10;;;;;;4973511;28;20511;-65
2021/04/27 06:54:19;;;;;;;3.13;2.10;;;14.00;75.20;;;;;;4972905;28;20581;-66
2021/04/27 06:56:46;;;;;;;3.38;2.42;;;14.00;73.70;;;;;;4973379;28;20046;-67
2021/04/27 06:59:14;;;;;;;6.75;2.67;;;14.10;74.30;;;;;;4972969;28;20557;-65
2021/04/27 07:01:40;;;;;;;6.38;2.42;;;14.00;73.70;;;;;;4973045;28;20122;-66
2021/04/27 07:04:07;;;;;;;5.70;2.50;;;14.40;71.70;;;;;;4972936;28;20049;-64
2021/04/27 07:06:34;;;;;;;3.92;2.33;;;14.20;70.80;;;;;;4973386;28;20410;-64
2021/04/27 07:09:01;;;;;;;2.58;2.28;;;13.10;72.10;;;;;;4973210;28;20054;-64
2021/04/27 07:11:29;;;;;;;2.17;1.98;;;13.70;71.10;;;;;;4973310;28;20065;-65
2021/04/27 07:13:55;;;;;;;2.63;2.30;;;13.70;70.20;;;;;;4963584;28;20050;-64
2021/04/27 07:16:21;;;;;;;3.60;2.30;;;14.20;69.40;;;;;;4953336;29;20047;-64
2021/04/27 07:18:48;;;;;;;5.13;2.20;;;13.70;69.70;;;;;;4953632;29;20510;-64
2021/04/27 07:21:17;;;;;;;5.38;2.17;;;14.20;70.00;;;;;;4953190;29;20047;-65
2021/04/27 07:23:44;;;;;;;10.05;2.08;;;14.80;67.70;;;;;;4953072;29;20046;-66
2021/04/27 07:26:10;;;;;;;9.45;2.67;;;14.90;67.80;;;;;;4953303;29;20047;-65
2021/04/27 07:28:37;;;;;;;6.40;2.53;;;14.20;65.90;;;;;;4953007;29;20183;-66
2021/04/27 07:31:03;;;;;;;7.45;2.60;;;15.10;66.80;;;;;;4952819;29;20444;-65
2021/04/27 07:33:30;;;;;;;;;;;15.20;64.50;;;;;;4953259;29;20097;-66
2021/04/27 07:35:57;;;;;;;5.28;2.25;;;14.80;65.50;;;;;;4935144;29;20306;-65
2021/04/27 07:38:23;;;;;;;3.88;2.30;;;15.10;67.50;;;;;;4952648;29;20047;-65
2021/04/27 07:40:51;;;;;;;;;;;15.60;65.60;;;;;;4952959;29;20093;-65
2021/04/27 07:43:17;;;;;;;3.22;2.17;;;16.50;63.20;;;;;;4953056;28;19922;-66
2021/04/27 07:45:44;;;;;;;4.85;2.20;;;15.30;64.00;;;;;;4952310;29;20515;-65
2021/04/27 07:48:11;;;;;;;7.38;2.50;;;15.80;62.50;;;;;;4952445;29;20047;-66
2021/04/27 07:50:37;;;;;;;3.95;2.40;;;16.00;62.10;;;;;;4952415;29;20050;-65
2021/04/27 07:53:04;;;;;;;;;;;16.30;62.10;;;;;;4953262;29;20043;-65
2021/04/27 07:55:31;;;;;;;4.03;2.10;;;15.90;60.10;;;;;;4952192;29;19922;-66
2021/04/27 07:57:59;;;;;;;6.93;2.28;;;15.40;59.50;;;;;;4952187;29;20047;-65
2021/04/27 08:00:26;;;;;;;6.95;2.30;;;16.00;58.70;;;;;;4952401;29;20495;-66
2021/04/27 08:02:53;;;;;;;9.65;2.65;;;16.30;59.10;;;;;;4961623;28;20042;-64
2021/04/27 08:05:21;;;;;;;6.05;2.83;;;15.20;58.30;;;;;;4970111;28;20559;-64
2021/04/27 08:07:47;;;;;;;4.18;2.20;;;15.10;59.50;;;;;;4951991;28;20117;-65
2021/04/27 08:10:14;;;;;;;;;;;15.60;59.00;;;;;;4967534;28;20126;-65
2021/04/27 08:12:41;;;;;;;8.25;2.42;;;14.80;59.90;;;;;;4967280;28;19968;-66
2021/04/27 08:15:11;;;;;;;5.00;2.58;;;16.20;58.30;;;;;;4948964;28;20042;-65
2021/04/27 08:17:38;;;;;;;5.10;2.30;;;16.60;56.80;;;;;;4961638;28;20130;-66
2021/04/27 08:20:06;;;;;;;5.13;2.38;;;17.00;56.90;;;;;;4952546;28;20101;-65
2021/04/27 08:22:33;;;;;;;5.72;2.53;;;16.60;56.40;;;;;;4970761;28;20471;-66
2021/04/27 08:25:00;;;;;;;;;;;16.10;57.30;;;;;;4971442;28;20118;-66
2021/04/27 08:27:26;;;;;;;7.70;2.70;;;15.70;56.90;;;;;;4969352;28;19936;-68
2021/04/27 08:29:53;;;;;;;4.10;2.33;;;17.10;56.70;;;;;;4961069;28;20051;-66
2021/04/27 08:32:21;;;;;;;7.47;2.20;;;16.90;55.90;;;;;;4962810;28;20039;-66
2021/04/27 08:34:48;;;;;;;3.63;2.20;;;15.60;57.60;;;;;;4971517;28;20101;-64
2021/04/27 08:37:14;;;;;;;4.43;2.58;;;15.70;57.50;;;;;;4971295;28;20050;-65
2021/04/27 08:39:41;;;;;;;6.47;2.70;;;17.10;56.90;;;;;;4953469;28;20050;-65
2021/04/27 08:42:11;;;;;;;3.88;2.28;;;17.40;56.10;;;;;;4969641;28;20046;-65
2021/04/27 08:44:39;;;;;;;5.95;2.90;;;17.60;55.70;;;;;;4969360;28;20108;-66
2021/04/27 08:47:07;;;;;;;4.18;2.30;;;18.50;56.90;;;;;;4969379;28;20046;-67
2021/04/27 08:49:34;;;;;;;3.95;2.53;;;18.20;52.90;;;;;;4970920;28;20051;-67
2021/04/27 08:52:01;;;;;;;3.58;2.50;;;16.30;55.10;;;;;;4969663;28;20074;-67
2021/04/27 08:54:27;;;;;;;6.25;2.63;;;17.20;54.80;;;;;;4967205;28;20047;-67
2021/04/27 08:56:54;;;;;;;3.28;2.22;;;17.50;55.50;;;;;;4969658;28;20050;-66
2021/04/27 08:59:20;;;;;;;5.65;2.60;;;17.70;54.50;;;;;;4970490;28;20039;-67
2021/04/27 09:01:47;;;;;;;6.18;2.58;;;17.90;55.30;;;;;;4970833;28;20054;-66
2021/04/27 09:04:34;;;;;;;5.13;2.50;;;17.60;54.00;;;;;;4951193;28;20137;-66
2021/04/27 09:07:05;;;;;;;4.78;2.60;;;17.20;54.70;;;;;;4965604;28;20317;-67
2021/04/27 09:09:39;;;;;;;8.10;2.75;;;17.00;55.20;;;;;;4970371;28;20058;-67
2021/04/27 09:12:06;;;;;;;5.68;2.55;;;17.30;55.90;;;;;;4970711;28;20065;-67
2021/04/27 09:14:36;;;;;;;5.30;3.05;;;16.90;55.10;;;;;;4966272;28;20046;-67
2021/04/27 09:17:04;;;;;;;5.78;2.70;;;17.20;55.60;;;;;;4954191;28;20047;-67
2021/04/27 09:19:41;;;;;;;3.40;2.58;;;18.60;54.20;;;;;;4974576;28;20046;-66
2021/04/27 09:22:12;;;;;;;5.43;2.97;;;18.20;53.50;;;;;;4973225;28;20081;-66
2021/04/27 09:24:41;;;;;;;5.60;3.08;;;17.10;54.00;;;;;;4974456;28;20142;-67
2021/04/27 09:27:08;;;;;;;6.90;2.70;;;16.90;55.30;;;;;;4974457;28;20054;-66
2021/04/27 09:29:38;;;;;;;6.57;3.20;;;17.00;53.90;;;;;;4973926;28;20141;-66
2021/04/27 09:32:05;;;;;;;5.68;3.20;;;17.10;53.40;;;;;;4955747;28;20253;-66
2021/04/27 09:34:33;;;;;;;4.97;3.08;;;16.20;55.40;;;;;;4966428;28;20144;-66
2021/04/27 09:37:02;;;;;;;6.07;2.90;;;15.40;56.70;;;;;;4967242;28;20121;-66
2021/04/27 09:39:36;;;;;;;5.68;3.17;;;15.60;56.40;;;;;;4965858;28;20129;-66
2021/04/27 09:42:05;;;;;;;4.88;3.15;;;16.00;54.30;;;;;;4966224;28;20071;-66
2021/04/27 09:44:35;;;;;;;7.45;3.15;;;15.90;54.90;;;;;;4950273;28;20089;-67
2021/04/27 09:47:16;;;;;;;4.53;3.28;;;16.10;56.40;;;;;;4965366;28;20145;-67
2021/04/27 09:49:55;;;;;;;5.88;3.20;;;16.30;55.30;;;;;;4965179;28;20074;-67
2021/04/27 09:52:22;;;;;;;4.05;2.88;;;16.20;55.20;;;;;;4967258;28;20049;-67
2021/04/27 09:54:59;;;;;;;;;;;16.20;55.70;;;;;;4970038;28;20133;-66
2021/04/27 09:57:26;;;;;;;3.22;2.78;;;16.20;55.80;;;;;;4974064;28;20012;-67
2021/04/27 09:59:52;;;;;;;4.53;3.33;;;16.60;55.60;;;;;;4955928;28;21392;-66
2021/04/27 10:02:21;;;;;;;7.47;3.47;;;16.80;55.90;;;;;;4970924;28;20246;-66
2021/04/27 10:04:49;;;;;;;3.65;3.03;;;17.30;54.30;;;;;;4965479;28;20222;-67
2021/04/27 10:07:17;;;;;;;7.47;3.50;;;16.80;55.30;;;;;;4964431;28;20050;-67
2021/04/27 10:09:46;;;;;;;5.75;3.22;;;17.10;53.00;;;;;;4950538;28;20057;-66
2021/04/27 10:12:14;;;;;;;4.13;3.00;;;17.20;53.10;;;;;;4966399;28;20042;-66
2021/04/27 10:14:41;;;;;;;5.50;2.90;;;17.80;54.10;;;;;;4966997;28;20047;-66
2021/04/27 10:17:15;;;;;;;7.95;3.30;;;17.90;52.10;;;;;;4968185;28;20090;-65
2021/04/27 10:19:42;;;;;;;8.18;3.10;;;17.70;51.90;;;;;;4967329;28;20070;-66
2021/04/27 10:22:09;;;;;;;;;;;17.40;52.40;;;;;;4966868;28;20129;-66
2021/04/27 10:24:38;;;;;;;9.65;3.85;;;17.20;52.60;;;;;;4965270;28;19922;-66
2021/04/27 10:27:05;;;;;;;3.30;3.00;;;18.00;51.20;;;;;;4964326;28;20522;-67
2021/04/27 10:29:33;;;;;;;5.53;3.10;;;18.30;49.80;;;;;;4953776;28;20066;-66
2021/04/27 10:32:17;;;;;;;3.15;2.85;;;17.80;52.50;;;;;;4950621;28;20149;-66
2021/04/27 10:35:05;;;;;;;8.02;3.00;;;17.40;52.00;;;;;;4971958;28;20047;-66
2021/04/27 10:37:58;;;;;;;8.82;3.20;;;18.00;52.20;;;;;;4972909;28;20093;-66
2021/04/27 10:40:49;;;;;;;6.57;3.20;;;18.30;51.60;;;;;;4963226;28;20039;-66
2021/04/27 10:43:40;;;;;;;4.30;3.40;;;18.30;53.50;;;;;;4953598;29;20185;-66
2021/04/27 10:46:11;;;;;;;9.77;3.35;;;17.20;51.90;;;;;;4956410;28;20505;-66
2021/04/27 10:48:40;;;;;;;5.28;3.33;;;16.80;52.80;;;;;;4950823;28;20052;-66
2021/04/27 10:51:36;;;;;;;8.23;3.72;;;17.50;52.60;;;;;;4968714;28;20034;-66
2021/04/27 10:54:05;;;;;;;5.07;3.10;;;17.30;52.10;;;;;;4947631;28;20173;-66
2021/04/27 10:56:40;;;;;;;7.93;3.42;;;17.00;51.40;;;;;;4955956;28;20058;-67
2021/04/27 10:59:10;;;;;;;4.22;3.20;;;18.00;50.50;;;;;;4955331;28;20109;-66
2021/04/27 11:01:40;;;;;;;4.03;3.60;;;18.20;50.20;;;;;;4972187;28;20438;-66
2021/04/27 11:04:26;;;;;;;8.57;3.35;;;17.20;51.30;;;;;;4973162;28;20125;-66
2021/04/27 11:07:13;;;;;;;5.72;3.85;;;17.60;51.20;;;;;;4975500;23;20089;-76
2021/04/27 11:10:27;;;;;;;6.18;3.40;;;17.20;51.60;;;;;;4966966;28;20042;-74
2021/04/27 11:12:56;;;;;;;11.93;3.72;;;17.40;51.00;;;;;;4968336;28;20066;-74
2021/04/27 11:15:25;;;;;;;4.72;3.45;;;18.30;51.10;;;;;;4954773;29;20122;-73
2021/04/27 11:18:04;;;;;;;7.03;3.63;;;17.90;50.80;;;;;;4963735;28;20050;-73
2021/04/27 11:21:02;;;;;;;4.72;3.40;;;17.60;51.60;;;;;;4967333;28;20043;-75
2021/04/27 11:23:49;;;;;;;4.78;3.40;;;17.80;50.90;;;;;;4973877;28;20388;-75
2021/04/27 11:26:52;;;;;;;4.88;3.63;;;17.60;51.60;;;;;;4945625;28;20047;-73
2021/04/27 11:29:24;;;;;;;3.40;3.10;;;18.60;50.80;;;;;;4979060;28;20039;-74
2021/04/27 11:32:03;;;;;;;7.50;3.75;;;18.50;50.00;;;;;;4954805;28;20047;-74
2021/04/27 11:34:31;;;;;;;3.85;3.13;;;18.90;49.50;;;;;;4977331;28;20050;-75
2021/04/27 11:37:00;;;;;;;4.72;3.25;;;18.50;49.60;;;;;;4976967;28;20082;-76
2021/04/27 11:39:31;;;;;;;4.20;3.00;;;19.60;48.10;;;;;;4978155;28;20041;-75
2021/04/27 11:41:59;;;;;;;5.03;3.00;;;18.80;48.40;;;;;;4979125;28;20038;-73
2021/04/27 11:44:31;;;;;;;4.00;3.58;;;18.10;50.20;;;;;;4988254;28;20114;-74
2021/04/27 11:47:03;;;;;;;5.47;3.33;;;18.00;50.50;;;;;;4973472;28;20141;-74
2021/04/27 11:49:48;;;;;;;6.20;3.50;;;18.40;49.70;;;;;;4992130;28;20053;-75
2021/04/27 11:52:35;;;;;;;6.05;3.67;;;19.10;49.10;;;;;;4973547;28;20038;-74
2021/04/27 11:55:02;;;;;;;3.60;3.28;;;18.70;49.20;;;;;;4966502;28;20043;-74
2021/04/27 11:57:29;;;;;;;5.38;3.30;;;18.40;50.80;;;;;;4980414;28;20049;-74
2021/04/27 12:00:00;;;;;;;4.93;3.63;;;18.20;50.20;;;;;;4966126;28;20137;-76
2021/04/27 12:02:31;;;;;;;7.22;4.32;;;18.40;49.40;;;;;;4943449;28;20047;-74
2021/04/27 12:04:58;;;;;;;5.30;3.67;;;18.60;50.00;;;;;;4972730;28;20050;-74
2021/04/27 12:07:30;;;;;;;4.90;3.30;;;18.70;49.20;;;;;;4936175;29;20404;-75
2021/04/27 12:09:58;;;;;;;4.63;3.78;;;18.40;49.60;;;;;;4970060;28;20071;-74
2021/04/27 12:12:25;;;;;;;7.40;3.90;;;18.80;48.00;;;;;;4957426;28;20434;-74
2021/04/27 12:14:53;;;;;;;7.57;4.07;;;18.30;48.00;;;;;;4971518;28;20047;-75
2021/04/27 12:17:30;;;;;;;5.65;3.45;;;18.30;49.20;;;;;;4977945;28;20048;-73
2021/04/27 12:20:19;;;;;;;3.92;3.47;;;18.60;49.60;;;;;;4958772;28;20057;-75
2021/04/27 12:22:50;;;;;;;8.55;3.92;;;19.80;49.50;;;;;;4965271;28;20059;-73
2021/04/27 12:25:19;;;;;;;4.30;3.72;;;20.50;48.20;;;;;;4972286;28;20101;-77
2021/04/27 12:27:46;;;;;;;6.70;3.83;;;20.70;47.80;;;;;;4971280;28;20105;-73
2021/04/27 12:30:15;;;;;;;;;;;19.70;48.00;;;;;;4971231;28;20068;-72
2021/04/27 12:32:47;;;;;;;4.18;3.50;;;19.40;48.00;;;;;;4972703;28;19930;-74
2021/04/27 12:35:22;;;;;;;4.15;3.75;;;19.30;48.70;;;;;;4953759;28;20055;-75
2021/04/27 12:38:01;;;;;;;4.75;3.88;;;19.60;48.20;;;;;;4965846;28;20047;-75
2021/04/27 12:40:31;;;;;;;6.30;4.20;;;19.60;48.70;;;;;;4973752;28;20062;-77
2021/04/27 12:43:02;;;;;;;4.18;3.08;;;19.90;48.10;;;;;;4973053;28;20077;-73
2021/04/27 12:45:40;;;;;;;7.70;4.10;;;20.00;48.50;;;;;;4971864;28;20612;-74
2021/04/27 12:48:08;;;;;;;4.20;3.53;;;19.60;48.30;;;;;;4969378;28;20058;-74
2021/04/27 12:50:44;;;;;;;5.60;3.83;;;20.10;48.70;;;;;;4969393;28;20066;-73
2021/04/27 12:53:11;;;;;;;6.32;4.20;;;20.50;48.30;;;;;;4950804;28;20070;-74
2021/04/27 12:55:38;;;;;;;7.93;3.70;;;19.60;47.60;;;;;;4965911;28;20131;-74
2021/04/27 12:58:13;;;;;;;4.63;3.28;;;19.10;48.80;;;;;;4971665;28;20097;-74
2021/04/27 13:00:51;;;;;;;4.30;3.28;;;19.60;46.20;;;;;;4957040;28;20049;-73
2021/04/27 13:03:19;;;;;;;4.38;2.95;;;18.90;47.80;;;;;;4984201;28;22034;-74
2021/04/27 13:05:47;;;;;;;5.40;3.40;;;19.30;47.50;;;;;;4982673;28;20532;-74
2021/04/27 13:08:14;;;;;;;3.85;3.42;;;19.70;44.80;;;;;;4977669;28;20054;-74
2021/04/27 13:10:43;;;;;;;3.80;3.33;;;21.10;44.70;;;;;;4958650;28;20285;-73
2021/04/27 13:13:14;;;;;;;4.22;3.55;;;21.60;43.50;;;;;;4968037;28;20053;-73
2021/04/27 13:15:43;;;;;;;3.40;3.10;;;21.70;44.10;;;;;;4978111;28;20340;-72
2021/04/27 13:18:10;;;;;;;6.75;3.38;;;20.10;46.00;;;;;;4978651;28;20051;-71
2021/04/27 13:20:40;;;;;;;5.68;3.67;;;20.10;46.60;;;;;;4973500;28;20592;-73
2021/04/27 13:23:13;;;;;;;3.63;3.03;;;19.90;44.70;;;;;;4977408;28;20097;-75
2021/04/27 13:25:43;;;;;;;9.60;3.45;;;19.50;45.80;;;;;;4951411;28;20503;-73
2021/04/27 13:28:16;;;;;;;4.15;3.33;;;20.00;45.40;;;;;;4963979;28;20051;-71
2021/04/27 13:30:49;;;;;;;5.65;3.10;;;19.90;45.70;;;;;;4969873;28;20105;-73
2021/04/27 13:33:18;;;;;;;3.42;2.85;;;20.50;45.40;;;;;;4970723;28;20121;-73
2021/04/27 13:35:48;;;;;;;7.10;3.70;;;20.50;45.50;;;;;;4953503;28;20050;-72
2021/04/27 13:38:20;;;;;;;9.10;3.85;;;19.90;46.70;;;;;;4968193;28;20043;-72
2021/04/27 13:40:48;;;;;;;3.60;3.22;;;20.40;45.40;;;;;;4972502;28;20589;-72
2021/04/27 13:43:17;;;;;;;7.40;3.72;;;19.30;45.50;;;;;;4956111;28;20499;-72
2021/04/27 13:45:44;;;;;;;7.85;3.63;;;20.90;44.70;;;;;;4967471;28;20051;-72
2021/04/27 13:48:12;;;;;;;7.53;3.58;;;20.60;44.80;;;;;;4970042;28;20498;-73
2021/04/27 13:50:41;;;;;;;5.88;3.30;;;21.20;45.00;;;;;;4970278;28;20039;-73
2021/04/27 13:53:08;;;;;;;7.05;2.95;;;21.10;45.60;;;;;;4987925;28;20050;-73
2021/04/27 13:55:36;;;;;;;5.13;3.70;;;20.80;42.80;;;;;;4988548;28;20114;-73
2021/04/27 13:58:03;;;;;;;3.90;3.00;;;20.70;43.80;;;;;;4986980;28;20043;-73
2021/04/27 14:00:30;;;;;;;4.97;3.70;;;21.40;44.30;;;;;;4987468;28;20073;-73
2021/04/27 14:03:12;;;;;;;;;;;20.20;44.10;;;;;;4993930;28;20124;-73
2021/04/27 14:05:40;;;;;;;5.00;3.05;;;20.40;45.10;;;;;;4979215;28;20009;-74
2021/04/27 14:08:08;;;;;;;3.55;3.25;;;21.30;43.70;;;;;;4985115;28;20132;-73
2021/04/27 14:10:36;;;;;;;4.95;3.08;;;20.90;42.80;;;;;;4981907;28;20042;-73
2021/04/27 14:13:03;;;;;;;4.38;2.88;;;21.20;43.50;;;;;;4984907;28;20633;-73
2021/04/27 14:15:32;;;;;;;9.05;3.40;;;20.70;43.30;;;;;;4959454;28;20043;-72
2021/04/27 14:18:00;;;;;;;6.15;3.22;;;20.70;43.60;;;;;;5003492;28;20038;-72
2021/04/27 14:20:28;;;;;;;4.20;2.85;;;20.70;44.40;;;;;;5004306;28;20038;-72
2021/04/27 14:22:55;;;;;;;4.07;3.10;;;21.30;44.60;;;;;;4989079;28;20057;-73
2021/04/27 14:25:22;;;;;;;3.33;3.05;;;20.70;44.80;;;;;;4983468;28;20046;-73
2021/04/27 14:27:50;;;;;;;3.25;2.95;;;19.90;44.90;;;;;;4975032;28;20043;-73
2021/04/27 14:30:18;;;;;;;3.88;3.17;;;19.40;44.90;;;;;;4980960;28;20105;-73
2021/04/27 14:32:46;;;;;;;7.88;3.25;;;20.30;45.70;;;;;;4951619;28;20550;-73
2021/04/27 14:35:13;;;;;;;6.63;2.80;;;20.50;43.90;;;;;;4968071;28;20088;-73
2021/04/27 14:37:40;;;;;;;4.13;2.78;;;20.20;44.70;;;;;;4962663;28;20047;-73
2021/04/27 14:40:09;;;;;;;4.43;3.50;;;19.60;45.40;;;;;;4974982;28;20046;-73
2021/04/27 14:42:35;;;;;;;4.75;2.97;;;19.00;46.00;;;;;;4977598;28;20402;-72
2021/04/27 14:45:03;;;;;;;;;;;19.90;45.70;;;;;;4981667;28;20140;-72
2021/04/27 14:47:30;;;;;;;3.63;3.25;;;19.10;45.60;;;;;;4991186;28;19922;-73
2021/04/27 14:49:56;;;;;;;5.35;2.95;;;19.30;45.80;;;;;;4984974;28;20038;-73
2021/04/27 14:52:23;;;;;;;4.90;2.63;;;19.30;45.60;;;;;;4988666;28;20034;-74
2021/04/27 14:54:49;;;;;;;4.70;3.33;;;20.60;46.10;;;;;;4978053;28;20053;-73
2021/04/27 14:57:16;;;;;;;4.25;3.22;;;21.90;43.70;;;;;;4992720;28;20053;-73
2021/04/27 14:59:42;;;;;;;3.20;2.90;;;21.50;43.50;;;;;;4974646;28;20061;-74
2021/04/27 15:02:10;;;;;;;5.05;3.00;;;21.40;42.90;;;;;;4989546;28;20558;-73
2021/04/27 15:04:36;;;;;;;4.65;3.50;;;21.30;43.60;;;;;;4962523;28;20074;-72
2021/04/27 15:07:03;;;;;;;3.45;2.78;;;21.50;42.50;;;;;;4984257;28;20112;-73
2021/04/27 15:09:30;;;;;;;3.67;2.70;;;21.00;42.80;;;;;;4983210;28;20341;-73
2021/04/27 15:11:56;;;;;;;2.95;2.75;;;20.20;43.80;;;;;;4980722;28;20242;-73
2021/04/27 15:14:23;;;;;;;4.75;3.25;;;20.60;44.40;;;;;;4972284;28;20483;-73
2021/04/27 15:16:49;;;;;;;5.03;3.20;;;19.70;44.60;;;;;;4972509;28;20514;-74
2021/04/27 15:19:17;;;;;;;4.07;3.13;;;19.40;46.20;;;;;;4983381;28;20105;-73
2021/04/27 15:21:44;;;;;;;3.65;3.15;;;19.40;46.20;;;;;;4966265;28;20052;-74
2021/04/27 15:24:11;;;;;;;;;;;19.20;46.20;;;;;;4982916;28;20101;-73
2021/04/27 15:26:38;;;;;;;7.10;3.47;;;18.30;47.10;;;;;;4972832;28;19953;-73
2021/04/27 15:29:06;;;;;;;3.90;3.20;;;18.90;46.50;;;;;;4971967;28;20302;-73
2021/04/27 15:31:33;;;;;;;5.53;3.20;;;19.00;46.30;;;;;;4984887;28;20614;-73
2021/04/27 15:34:00;;;;;;;4.68;3.47;;;19.50;46.50;;;;;;4977035;28;20291;-73
2021/04/27 15:36:27;;;;;;;3.83;2.78;;;19.00;46.10;;;;;;4976825;28;20410;-74
2021/04/27 15:38:55;;;;;;;6.20;2.97;;;18.70;46.70;;;;;;4980729;28;20538;-73
2021/04/27 15:41:21;;;;;;;3.97;3.55;;;18.10;47.60;;;;;;4972601;28;20459;-73
2021/04/27 15:43:48;;;;;;;;;;;18.10;47.80;;;;;;4982133;28;20050;-73
2021/04/27 15:46:14;;;;;;;4.05;3.33;;;18.20;47.80;;;;;;4988446;28;20457;-74
2021/04/27 15:48:41;;;;;;;4.90;3.28;;;18.00;48.00;;;;;;4961822;28;20686;-73
2021/04/27 15:51:09;;;;;;;5.85;3.45;;;17.60;48.30;;;;;;4985175;28;20042;-74
2021/04/27 15:53:36;;;;;;;6.65;3.28;;;17.70;47.90;;;;;;4983318;28;20118;-73
2021/04/27 15:56:04;;;;;;;6.07;3.53;;;17.60;48.60;;;;;;4989988;28;20438;-74
2021/04/27 15:58:31;;;;;;;5.75;2.92;;;17.80;49.00;;;;;;4996556;28;20046;-72
2021/04/27 16:00:58;;;;;;;6.43;3.35;;;17.70;48.70;;;;;;4997260;28;20415;-73
2021/04/27 16:03:24;;;;;;;3.70;2.78;;;17.30;48.80;;;;;;4988054;28;20577;-72
2021/04/27 16:05:52;;;;;;;3.35;2.70;;;17.30;48.40;;;;;;4986072;28;20062;-72
2021/04/27 16:08:18;;;;;;;3.63;3.05;;;17.30;49.10;;;;;;4986173;28;20035;-73
2021/04/27 16:10:46;;;;;;;4.25;3.30;;;17.20;49.10;;;;;;4995171;28;20089;-72
2021/04/27 16:13:12;;;;;;;8.60;3.30;;;17.30;48.60;;;;;;4988832;28;20070;-72
2021/04/27 16:15:39;;;;;;;23.23;5.50;;;17.70;48.30;;;;;;5006223;28;20038;-72
2021/04/27 16:18:05;;;;;;;7.10;3.63;;;17.70;48.80;;;;;;4998302;28;20061;-72
2021/04/27 16:20:32;;;;;;;4.63;3.08;;;17.70;49.00;;;;;;4977681;28;20208;-73
2021/04/27 16:22:58;;;;;;;3.65;3.15;;;17.70;49.20;;;;;;4988327;28;20103;-73
2021/04/27 16:25:25;;;;;;;4.05;2.65;;;17.90;48.70;;;;;;4969161;28;20098;-73
2021/04/27 16:27:52;;;;;;;8.38;3.00;;;17.70;49.20;;;;;;4988874;28;20087;-74
2021/04/27 16:30:20;;;;;;;3.58;2.70;;;17.60;48.90;;;;;;4996242;28;20038;-74
2021/04/27 16:32:47;;;;;;;3.53;3.22;;;17.60;49.50;;;;;;4991834;28;20050;-74
2021/04/27 16:35:14;;;;;;;3.95;3.33;;;17.30;49.40;;;;;;4995148;28;20043;-74
2021/04/27 16:37:41;;;;;;;6.32;2.78;;;17.20;49.60;;;;;;4975618;28;20073;-73
2021/04/27 16:40:08;;;;;;;;;;;17.20;49.80;;;;;;4992384;28;20057;-73
2021/04/27 16:42:35;;;;;;;3.85;3.33;;;17.00;49.60;;;;;;4993564;28;19932;-73
2021/04/27 16:45:02;;;;;;;;;;;16.80;49.50;;;;;;4973122;28;20050;-73
2021/04/27 16:47:29;;;;;;;8.98;3.70;;;16.90;49.50;;;;;;4995323;28;19922;-73
2021/04/27 16:49:55;;;;;;;;;;;17.00;49.80;;;;;;4995051;28;20058;-73
2021/04/27 16:52:22;;;;;;;6.25;3.10;;;17.10;49.90;;;;;;4987848;28;20442;-73
2021/04/27 16:54:49;;;;;;;4.43;2.85;;;17.00;50.10;;;;;;4979644;28;20057;-73
2021/04/27 16:57:15;;;;;;;3.83;2.97;;;16.90;50.50;;;;;;4984906;28;20107;-73
2021/04/27 16:59:45;;;;;;;6.93;2.90;;;16.60;50.10;;;;;;4971724;28;20870;-71
2021/04/27 17:02:13;;;;;;;5.95;2.97;;;16.80;49.90;;;;;;4973893;28;20038;-73
2021/04/27 17:04:39;;;;;;;3.30;2.72;;;16.90;49.80;;;;;;4968412;28;20042;-69
2021/04/27 17:07:06;;;;;;;6.13;3.40;;;16.70;49.70;;;;;;4987776;23;20087;-64
2021/04/27 17:09:32;;;;;;;2.88;2.67;;;16.70;49.70;;;;;;4968908;28;20074;-64
2021/04/27 17:11:59;;;;;;;3.78;2.95;;;16.80;49.80;;;;;;4969307;28;20041;-64
2021/04/27 17:14:25;;;;;;;3.47;2.20;;;16.90;49.70;;;;;;4966805;28;20051;-64
2021/04/27 17:16:52;;;;;;;5.10;3.10;;;16.90;50.30;;;;;;4967089;28;20078;-64
2021/04/27 17:19:19;;;;;;;5.20;2.92;;;17.00;50.30;;;;;;4966735;28;20053;-64
2021/04/27 17:21:46;;;;;;;5.35;3.38;;;16.90;50.50;;;;;;4969705;28;20078;-64
2021/04/27 17:24:12;;;;;;;5.05;2.72;;;17.00;50.80;;;;;;4970300;28;20066;-63
2021/04/27 17:26:39;;;;;;;5.47;2.97;;;16.90;51.30;;;;;;4965899;28;20078;-63
2021/04/27 17:29:06;;;;;;;5.03;3.08;;;16.80;51.30;;;;;;4956112;28;20077;-65
2021/04/27 17:31:33;;;;;;;;;;;16.70;51.60;;;;;;4970575;28;20069;-64
2021/04/27 17:33:59;;;;;;;3.70;2.55;;;16.70;52.10;;;;;;4970164;28;19969;-64
2021/04/27 17:36:29;;;;;;;4.47;2.60;;;16.60;51.50;;;;;;4969058;28;20058;-64
2021/04/27 17:38:56;;;;;;;2.78;2.38;;;16.60;51.60;;;;;;4971729;28;20051;-64
2021/04/27 17:41:22;;;;;;;;;;;16.70;51.70;;;;;;4970476;28;20601;-64
2021/04/27 17:43:49;;;;;;;4.88;2.28;;;16.40;53.00;;;;;;4972970;28;19922;-64
2021/04/27 17:46:15;;;;;;;;;;;16.40;53.70;;;;;;4972195;28;20101;-64
2021/04/27 17:48:42;;;;;;;4.28;2.03;;;16.40;53.40;;;;;;4972405;28;19922;-64
2021/04/27 17:51:08;;;;;;;4.40;2.47;;;16.20;52.90;;;;;;4972356;28;20053;-64
2021/04/27 17:53:36;;;;;;;4.15;3.00;;;16.20;52.40;;;;;;4970118;28;20434;-65
2021/04/27 17:56:02;;;;;;;8.52;3.00;;;16.20;52.30;;;;;;4972253;28;20054;-64